West Lorne, Canada
Current Conditions -  °F | °C
As of 3:18 AM on Friday 31 Oct 2014 (Local Time) from CYCK Reporting Station
Light Rain Light Rain  
Wind Chill: 41°   Ceiling: 4700
Heat Index: 45°   Visibility: 9mi
Dew Point: 39°   Wind: 6mph
Humidity: 81%   Direction: 250°WSW
Pressure: 29.97"   Gusts: NA
Location:  42.6°N, 81.6°W
Report Text: CYCK 310718Z AUTO 25005KT 9SM -RA BKN047 OVC055 07/04 A2997 RMK SLP151
Loading
Personal Weather Stations






























Interactive Weather Map
Tropical Storm Tracking
New forecast layout! Learn more

10-Day Weather Forecast

Advertisements
Track Severe Weather on mobile